York Beach, Maine
Current Conditions -  °F | °C
As of 12:58 PM on Thursday 18 Dec 2014 (Local Time) from KPSM Reporting Station
Broken Clouds Broken Clouds  
Wind Chill: 34°   Ceiling: 3200
Heat Index: 42°   Visibility: 10mi
Dew Point: 31°   Wind: 17mph
Humidity: 64%   Direction: 290°WNW
Pressure: 29.71"   Gusts: 24mph
Location:  43.17°N, 70.61°W
Report Text: KPSM 181758Z 29015G21KT 10SM BKN032 BKN075 06/M01 A2971 RMK AO2A PK WND 30026/30 SLP065 60000 T00571007 10061 20026 55007
Loading
Personal Weather Stations






























Interactive Weather Map New forecast layout! Learn more

10-Day Weather Forecast

Advertisements
Track Severe Weather on mobile